sensor_id;sensor_type;location;lat;lon;timestamp;P1;P2;P0
62249;PMS5003;48237;50.140;8.486;2022-12-29T00:00:09;4;4;
62249;PMS5003;48237;50.140;8.486;2022-12-29T00:02:38;5;5;
62249;PMS5003;48237;50.140;8.486;2022-12-29T00:05:05;5;5;
62249;PMS5003;48237;50.140;8.486;2022-12-29T00:07:32;7;7;
62249;PMS5003;48237;50.140;8.486;2022-12-29T00:10:00;8;8;
62249;PMS5003;48237;50.140;8.486;2022-12-29T00:12:27;7;7;
62249;PMS5003;48237;50.140;8.486;2022-12-29T00:14:54;7;4;
62249;PMS5003;48237;50.140;8.486;2022-12-29T00:17:21;5;5;
62249;PMS5003;48237;50.140;8.486;2022-12-29T00:19:48;7;6;
62249;PMS5003;48237;50.140;8.486;2022-12-29T00:22:15;10;8;
62249;PMS5003;48237;50.140;8.486;2022-12-29T00:24:43;6;6;
62249;PMS5003;48237;50.140;8.486;2022-12-29T00:27:11;8;6;
62249;PMS5003;48237;50.140;8.486;2022-12-29T00:29:39;9;6;
62249;PMS5003;48237;50.140;8.486;2022-12-29T00:32:06;7;5;
62249;PMS5003;48237;50.140;8.486;2022-12-29T00:34:35;9;8;
62249;PMS5003;48237;50.140;8.486;2022-12-29T00:37:02;8;5;
62249;PMS5003;48237;50.140;8.486;2022-12-29T00:39:29;9;7;
62249;PMS5003;48237;50.140;8.486;2022-12-29T00:41:56;7;6;
62249;PMS5003;48237;50.140;8.486;2022-12-29T00:44:29;6;6;
62249;PMS5003;48237;50.140;8.486;2022-12-29T00:46:56;7;5;
62249;PMS5003;48237;50.140;8.486;2022-12-29T00:49:23;6;5;
62249;PMS5003;48237;50.140;8.486;2022-12-29T00:51:50;5;5;
62249;PMS5003;48237;50.140;8.486;2022-12-29T00:54:18;9;7;
62249;PMS5003;48237;50.140;8.486;2022-12-29T00:56:46;5;4;
62249;PMS5003;48237;50.140;8.486;2022-12-29T00:59:14;10;6;
62249;PMS5003;48237;50.140;8.486;2022-12-29T01:01:42;7;5;
62249;PMS5003;48237;50.140;8.486;2022-12-29T01:04:09;7;5;
62249;PMS5003;48237;50.140;8.486;2022-12-29T01:06:37;5;5;
62249;PMS5003;48237;50.140;8.486;2022-12-29T01:09:05;6;5;
62249;PMS5003;48237;50.140;8.486;2022-12-29T01:11:33;5;5;
62249;PMS5003;48237;50.140;8.486;2022-12-29T01:14:00;5;5;
62249;PMS5003;48237;50.140;8.486;2022-12-29T01:16:27;4;4;
62249;PMS5003;48237;50.140;8.486;2022-12-29T01:18:55;8;6;
62249;PMS5003;48237;50.140;8.486;2022-12-29T01:21:23;6;6;
62249;PMS5003;48237;50.140;8.486;2022-12-29T01:23:51;6;6;
62249;PMS5003;48237;50.140;8.486;2022-12-29T01:26:18;8;5;
62249;PMS5003;48237;50.140;8.486;2022-12-29T01:28:45;9;6;
62249;PMS5003;48237;50.140;8.486;2022-12-29T01:31:13;7;5;
62249;PMS5003;48237;50.140;8.486;2022-12-29T01:33:41;4;4;
62249;PMS5003;48237;50.140;8.486;2022-12-29T01:36:10;5;4;
62249;PMS5003;48237;50.140;8.486;2022-12-29T01:38:40;6;4;
62249;PMS5003;48237;50.140;8.486;2022-12-29T01:41:08;9;6;
62249;PMS5003;48237;50.140;8.486;2022-12-29T01:43:41;5;5;
62249;PMS5003;48237;50.140;8.486;2022-12-29T01:46:14;6;5;
62249;PMS5003;48237;50.140;8.486;2022-12-29T01:48:46;5;4;
62249;PMS5003;48237;50.140;8.486;2022-12-29T01:51:15;7;6;
62249;PMS5003;48237;50.140;8.486;2022-12-29T01:53:43;8;7;
62249;PMS5003;48237;50.140;8.486;2022-12-29T01:56:12;9;7;
62249;PMS5003;48237;50.140;8.486;2022-12-29T01:58:44;7;4;
62249;PMS5003;48237;50.140;8.486;2022-12-29T02:01:15;5;5;
62249;PMS5003;48237;50.140;8.486;2022-12-29T02:03:45;7;4;
62249;PMS5003;48237;50.140;8.486;2022-12-29T02:06:14;5;5;
62249;PMS5003;48237;50.140;8.486;2022-12-29T02:08:47;7;6;
62249;PMS5003;48237;50.140;8.486;2022-12-29T02:11:18;8;5;
62249;PMS5003;48237;50.140;8.486;2022-12-29T02:13:47;3;3;
62249;PMS5003;48237;50.140;8.486;2022-12-29T02:16:18;5;4;
62249;PMS5003;48237;50.140;8.486;2022-12-29T02:19:00;7;5;
62249;PMS5003;48237;50.140;8.486;2022-12-29T02:22:02;9;5;
62249;PMS5003;48237;50.140;8.486;2022-12-29T02:24:46;7;4;
62249;PMS5003;48237;50.140;8.486;2022-12-29T02:27:49;4;4;
62249;PMS5003;48237;50.140;8.486;2022-12-29T02:30:29;7;5;
62249;PMS5003;48237;50.140;8.486;2022-12-29T02:33:02;6;5;
62249;PMS5003;48237;50.140;8.486;2022-12-29T02:35:41;8;6;
62249;PMS5003;48237;50.140;8.486;2022-12-29T02:38:20;5;5;
62249;PMS5003;48237;50.140;8.486;2022-12-29T02:41:02;8;5;
62249;PMS5003;48237;50.140;8.486;2022-12-29T02:43:37;6;4;
62249;PMS5003;48237;50.140;8.486;2022-12-29T02:46:10;4;4;
62249;PMS5003;48237;50.140;8.486;2022-12-29T02:48:49;5;5;
62249;PMS5003;48237;50.140;8.486;2022-12-29T02:51:25;5;5;
62249;PMS5003;48237;50.140;8.486;2022-12-29T02:53:54;5;5;
62249;PMS5003;48237;50.140;8.486;2022-12-29T02:56:23;7;5;
62249;PMS5003;48237;50.140;8.486;2022-12-29T02:58:50;6;4;
62249;PMS5003;48237;50.140;8.486;2022-12-29T03:01:22;5;3;
62249;PMS5003;48237;50.140;8.486;2022-12-29T03:04:00;8;5;
62249;PMS5003;48237;50.140;8.486;2022-12-29T03:06:41;4;3;
62249;PMS5003;48237;50.140;8.486;2022-12-29T03:09:20;3;3;
62249;PMS5003;48237;50.140;8.486;2022-12-29T03:11:56;3;3;
62249;PMS5003;48237;50.140;8.486;2022-12-29T03:14:31;5;3;
62249;PMS5003;48237;50.140;8.486;2022-12-29T03:17:03;4;4;
62249;PMS5003;48237;50.140;8.486;2022-12-29T03:19:35;3;3;
62249;PMS5003;48237;50.140;8.486;2022-12-29T03:22:06;3;3;
62249;PMS5003;48237;50.140;8.486;2022-12-29T03:24:37;2;2;
62249;PMS5003;48237;50.140;8.486;2022-12-29T03:27:08;9;4;
62249;PMS5003;48237;50.140;8.486;2022-12-29T03:29:41;4;4;
62249;PMS5003;48237;50.140;8.486;2022-12-29T03:32:12;5;3;
62249;PMS5003;48237;50.140;8.486;2022-12-29T03:34:41;2;2;
62249;PMS5003;48237;50.140;8.486;2022-12-29T03:37:09;3;3;
62249;PMS5003;48237;50.140;8.486;2022-12-29T03:39:41;5;2;
62249;PMS5003;48237;50.140;8.486;2022-12-29T03:42:09;3;3;
62249;PMS5003;48237;50.140;8.486;2022-12-29T03:44:40;4;4;
62249;PMS5003;48237;50.140;8.486;2022-12-29T03:47:10;3;1;
62249;PMS5003;48237;50.140;8.486;2022-12-29T03:49:38;3;1;
62249;PMS5003;48237;50.140;8.486;2022-12-29T03:52:05;2;2;
62249;PMS5003;48237;50.140;8.486;2022-12-29T03:54:32;6;3;
62249;PMS5003;48237;50.140;8.486;2022-12-29T03:56:59;6;4;
62249;PMS5003;48237;50.140;8.486;2022-12-29T03:59:26;3;3;
62249;PMS5003;48237;50.140;8.486;2022-12-29T04:01:53;5;4;
62249;PMS5003;48237;50.140;8.486;2022-12-29T04:04:20;4;4;
62249;PMS5003;48237;50.140;8.486;2022-12-29T04:06:47;3;2;
62249;PMS5003;48237;50.140;8.486;2022-12-29T04:09:14;5;3;
62249;PMS5003;48237;50.140;8.486;2022-12-29T04:11:41;4;4;
62249;PMS5003;48237;50.140;8.486;2022-12-29T04:14:08;6;4;
62249;PMS5003;48237;50.140;8.486;2022-12-29T04:16:35;5;4;
62249;PMS5003;48237;50.140;8.486;2022-12-29T04:19:02;6;3;
62249;PMS5003;48237;50.140;8.486;2022-12-29T04:21:29;4;4;
62249;PMS5003;48237;50.140;8.486;2022-12-29T04:23:56;5;4;
62249;PMS5003;48237;50.140;8.486;2022-12-29T04:26:23;5;5;
62249;PMS5003;48237;50.140;8.486;2022-12-29T04:28:50;4;4;
62249;PMS5003;48237;50.140;8.486;2022-12-29T04:31:18;6;6;
62249;PMS5003;48237;50.140;8.486;2022-12-29T04:33:45;4;4;
62249;PMS5003;48237;50.140;8.486;2022-12-29T04:36:12;8;5;
62249;PMS5003;48237;50.140;8.486;2022-12-29T04:38:39;6;6;
62249;PMS5003;48237;50.140;8.486;2022-12-29T04:41:06;3;3;
62249;PMS5003;48237;50.140;8.486;2022-12-29T04:43:33;3;3;
62249;PMS5003;48237;50.140;8.486;2022-12-29T04:46:00;4;4;
62249;PMS5003;48237;50.140;8.486;2022-12-29T04:48:28;7;3;
62249;PMS5003;48237;50.140;8.486;2022-12-29T04:50:55;7;5;
62249;PMS5003;48237;50.140;8.486;2022-12-29T04:53:22;4;3;
62249;PMS5003;48237;50.140;8.486;2022-12-29T04:55:49;7;7;
62249;PMS5003;48237;50.140;8.486;2022-12-29T04:58:17;9;4;
62249;PMS5003;48237;50.140;8.486;2022-12-29T05:00:44;6;5;
62249;PMS5003;48237;50.140;8.486;2022-12-29T05:03:11;6;5;
62249;PMS5003;48237;50.140;8.486;2022-12-29T05:05:38;2;2;
62249;PMS5003;48237;50.140;8.486;2022-12-29T05:08:05;5;4;
62249;PMS5003;48237;50.140;8.486;2022-12-29T05:10:33;8;8;
62249;PMS5003;48237;50.140;8.486;2022-12-29T05:13:00;3;3;
62249;PMS5003;48237;50.140;8.486;2022-12-29T05:15:27;7;5;
62249;PMS5003;48237;50.140;8.486;2022-12-29T05:17:54;8;7;
62249;PMS5003;48237;50.140;8.486;2022-12-29T05:20:21;7;4;
62249;PMS5003;48237;50.140;8.486;2022-12-29T05:22:48;7;4;
62249;PMS5003;48237;50.140;8.486;2022-12-29T05:25:15;4;4;
62249;PMS5003;48237;50.140;8.486;2022-12-29T05:27:42;4;4;
62249;PMS5003;48237;50.140;8.486;2022-12-29T05:30:10;5;4;
62249;PMS5003;48237;50.140;8.486;2022-12-29T05:32:38;5;4;
62249;PMS5003;48237;50.140;8.486;2022-12-29T05:35:05;4;4;
62249;PMS5003;48237;50.140;8.486;2022-12-29T05:37:34;6;5;
62249;PMS5003;48237;50.140;8.486;2022-12-29T05:40:01;5;3;
62249;PMS5003;48237;50.140;8.486;2022-12-29T05:42:28;3;2;
62249;PMS5003;48237;50.140;8.486;2022-12-29T05:44:55;8;7;
62249;PMS5003;48237;50.140;8.486;2022-12-29T05:47:22;5;4;
62249;PMS5003;48237;50.140;8.486;2022-12-29T05:49:49;8;6;
62249;PMS5003;48237;50.140;8.486;2022-12-29T05:52:16;5;3;
62249;PMS5003;48237;50.140;8.486;2022-12-29T05:54:43;3;3;
62249;PMS5003;48237;50.140;8.486;2022-12-29T05:57:10;5;5;
62249;PMS5003;48237;50.140;8.486;2022-12-29T05:59:37;6;6;
62249;PMS5003;48237;50.140;8.486;2022-12-29T06:02:04;3;3;
62249;PMS5003;48237;50.140;8.486;2022-12-29T06:04:31;7;3;
62249;PMS5003;48237;50.140;8.486;2022-12-29T06:06:59;3;3;
62249;PMS5003;48237;50.140;8.486;2022-12-29T06:09:26;4;4;
62249;PMS5003;48237;50.140;8.486;2022-12-29T06:11:53;4;4;
62249;PMS5003;48237;50.140;8.486;2022-12-29T06:14:20;6;5;
62249;PMS5003;48237;50.140;8.486;2022-12-29T06:16:47;5;5;
62249;PMS5003;48237;50.140;8.486;2022-12-29T06:19:14;7;4;
62249;PMS5003;48237;50.140;8.486;2022-12-29T06:21:41;9;5;
62249;PMS5003;48237;50.140;8.486;2022-12-29T06:24:08;5;5;
62249;PMS5003;48237;50.140;8.486;2022-12-29T06:26:35;4;3;
62249;PMS5003;48237;50.140;8.486;2022-12-29T06:29:02;8;6;
62249;PMS5003;48237;50.140;8.486;2022-12-29T06:31:29;5;3;
62249;PMS5003;48237;50.140;8.486;2022-12-29T06:33:57;10;4;
62249;PMS5003;48237;50.140;8.486;2022-12-29T06:36:24;4;3;
62249;PMS5003;48237;50.140;8.486;2022-12-29T06:38:51;6;6;
62249;PMS5003;48237;50.140;8.486;2022-12-29T06:41:18;3;3;
62249;PMS5003;48237;50.140;8.486;2022-12-29T06:43:45;4;4;
62249;PMS5003;48237;50.140;8.486;2022-12-29T06:46:11;3;3;
62249;PMS5003;48237;50.140;8.486;2022-12-29T06:48:38;4;4;
62249;PMS5003;48237;50.140;8.486;2022-12-29T06:51:06;7;5;
62249;PMS5003;48237;50.140;8.486;2022-12-29T06:53:32;4;4;
62249;PMS5003;48237;50.140;8.486;2022-12-29T06:56:00;5;3;
62249;PMS5003;48237;50.140;8.486;2022-12-29T06:58:27;6;5;
62249;PMS5003;48237;50.140;8.486;2022-12-29T07:00:54;9;6;
62249;PMS5003;48237;50.140;8.486;2022-12-29T07:03:21;3;3;
62249;PMS5003;48237;50.140;8.486;2022-12-29T07:05:48;6;5;
62249;PMS5003;48237;50.140;8.486;2022-12-29T07:08:15;5;4;
62249;PMS5003;48237;50.140;8.486;2022-12-29T07:10:42;4;4;
62249;PMS5003;48237;50.140;8.486;2022-12-29T07:13:09;5;3;
62249;PMS5003;48237;50.140;8.486;2022-12-29T07:15:36;4;4;
62249;PMS5003;48237;50.140;8.486;2022-12-29T07:18:04;4;4;
62249;PMS5003;48237;50.140;8.486;2022-12-29T07:20:31;5;5;
62249;PMS5003;48237;50.140;8.486;2022-12-29T07:22:59;3;3;
62249;PMS5003;48237;50.140;8.486;2022-12-29T07:25:27;6;6;
62249;PMS5003;48237;50.140;8.486;2022-12-29T07:27:54;4;4;
62249;PMS5003;48237;50.140;8.486;2022-12-29T07:30:20;5;5;
62249;PMS5003;48237;50.140;8.486;2022-12-29T07:32:47;5;4;
62249;PMS5003;48237;50.140;8.486;2022-12-29T07:35:15;5;5;
62249;PMS5003;48237;50.140;8.486;2022-12-29T07:37:51;6;6;
62249;PMS5003;48237;50.140;8.486;2022-12-29T07:40:18;8;5;
62249;PMS5003;48237;50.140;8.486;2022-12-29T07:42:45;5;5;
62249;PMS5003;48237;50.140;8.486;2022-12-29T07:45:12;5;5;
62249;PMS5003;48237;50.140;8.486;2022-12-29T07:47:39;5;5;
62249;PMS5003;48237;50.140;8.486;2022-12-29T07:50:06;5;5;
62249;PMS5003;48237;50.140;8.486;2022-12-29T07:52:33;7;5;
62249;PMS5003;48237;50.140;8.486;2022-12-29T07:55:00;5;5;
62249;PMS5003;48237;50.140;8.486;2022-12-29T07:57:28;8;6;
62249;PMS5003;48237;50.140;8.486;2022-12-29T07:59:55;7;6;
62249;PMS5003;48237;50.140;8.486;2022-12-29T08:02:22;7;4;
62249;PMS5003;48237;50.140;8.486;2022-12-29T08:04:49;7;5;
62249;PMS5003;48237;50.140;8.486;2022-12-29T08:07:16;8;6;
62249;PMS5003;48237;50.140;8.486;2022-12-29T08:09:43;8;7;
62249;PMS5003;48237;50.140;8.486;2022-12-29T08:12:10;5;4;
62249;PMS5003;48237;50.140;8.486;2022-12-29T08:14:37;11;5;
62249;PMS5003;48237;50.140;8.486;2022-12-29T08:17:04;7;5;
62249;PMS5003;48237;50.140;8.486;2022-12-29T08:19:31;6;6;
62249;PMS5003;48237;50.140;8.486;2022-12-29T08:21:58;7;7;
62249;PMS5003;48237;50.140;8.486;2022-12-29T08:24:25;6;5;
62249;PMS5003;48237;50.140;8.486;2022-12-29T08:26:51;10;9;
62249;PMS5003;48237;50.140;8.486;2022-12-29T08:29:18;5;5;
62249;PMS5003;48237;50.140;8.486;2022-12-29T08:31:45;5;5;
62249;PMS5003;48237;50.140;8.486;2022-12-29T08:34:12;4;4;
62249;PMS5003;48237;50.140;8.486;2022-12-29T08:36:39;6;6;
62249;PMS5003;48237;50.140;8.486;2022-12-29T08:39:06;8;6;
62249;PMS5003;48237;50.140;8.486;2022-12-29T08:41:33;7;7;
62249;PMS5003;48237;50.140;8.486;2022-12-29T08:44:01;11;5;
62249;PMS5003;48237;50.140;8.486;2022-12-29T08:46:28;5;4;
62249;PMS5003;48237;50.140;8.486;2022-12-29T08:48:55;8;6;
62249;PMS5003;48237;50.140;8.486;2022-12-29T08:51:22;8;7;
62249;PMS5003;48237;50.140;8.486;2022-12-29T08:53:49;6;5;
62249;PMS5003;48237;50.140;8.486;2022-12-29T08:56:17;8;7;
62249;PMS5003;48237;50.140;8.486;2022-12-29T08:58:45;10;10;
62249;PMS5003;48237;50.140;8.486;2022-12-29T09:01:12;9;7;
62249;PMS5003;48237;50.140;8.486;2022-12-29T09:03:39;8;8;
62249;PMS5003;48237;50.140;8.486;2022-12-29T09:06:06;6;5;
62249;PMS5003;48237;50.140;8.486;2022-12-29T09:08:33;8;6;
62249;PMS5003;48237;50.140;8.486;2022-12-29T09:11:05;10;7;
62249;PMS5003;48237;50.140;8.486;2022-12-29T09:13:33;9;7;
62249;PMS5003;48237;50.140;8.486;2022-12-29T09:16:01;9;7;
62249;PMS5003;48237;50.140;8.486;2022-12-29T09:18:28;6;6;
62249;PMS5003;48237;50.140;8.486;2022-12-29T09:20:55;7;7;
62249;PMS5003;48237;50.140;8.486;2022-12-29T09:23:23;12;6;
62249;PMS5003;48237;50.140;8.486;2022-12-29T09:25:50;7;7;
62249;PMS5003;48237;50.140;8.486;2022-12-29T09:28:18;11;7;
62249;PMS5003;48237;50.140;8.486;2022-12-29T09:30:45;7;7;
62249;PMS5003;48237;50.140;8.486;2022-12-29T09:33:12;10;7;
62249;PMS5003;48237;50.140;8.486;2022-12-29T09:35:41;9;7;
62249;PMS5003;48237;50.140;8.486;2022-12-29T09:38:09;10;8;
62249;PMS5003;48237;50.140;8.486;2022-12-29T09:40:36;9;9;
62249;PMS5003;48237;50.140;8.486;2022-12-29T09:43:11;10;7;
62249;PMS5003;48237;50.140;8.486;2022-12-29T09:45:55;7;5;
62249;PMS5003;48237;50.140;8.486;2022-12-29T09:48:31;6;6;
62249;PMS5003;48237;50.140;8.486;2022-12-29T09:51:03;5;5;
62249;PMS5003;48237;50.140;8.486;2022-12-29T09:53:36;10;7;
62249;PMS5003;48237;50.140;8.486;2022-12-29T09:56:10;10;7;
62249;PMS5003;48237;50.140;8.486;2022-12-29T09:58:42;5;5;
62249;PMS5003;48237;50.140;8.486;2022-12-29T10:01:21;7;5;
62249;PMS5003;48237;50.140;8.486;2022-12-29T10:03:55;5;5;
62249;PMS5003;48237;50.140;8.486;2022-12-29T10:06:24;5;5;
62249;PMS5003;48237;50.140;8.486;2022-12-29T10:08:57;4;4;
62249;PMS5003;48237;50.140;8.486;2022-12-29T10:11:38;3;3;
62249;PMS5003;48237;50.140;8.486;2022-12-29T10:14:23;6;4;
62249;PMS5003;48237;50.140;8.486;2022-12-29T10:17:05;4;4;
62249;PMS5003;48237;50.140;8.486;2022-12-29T10:19:49;3;3;
62249;PMS5003;48237;50.140;8.486;2022-12-29T10:22:31;5;5;
62249;PMS5003;48237;50.140;8.486;2022-12-29T10:25:08;5;3;
62249;PMS5003;48237;50.140;8.486;2022-12-29T10:27:41;6;3;
62249;PMS5003;48237;50.140;8.486;2022-12-29T10:30:11;5;4;
62249;PMS5003;48237;50.140;8.486;2022-12-29T10:32:40;4;4;
62249;PMS5003;48237;50.140;8.486;2022-12-29T10:35:12;3;1;
62249;PMS5003;48237;50.140;8.486;2022-12-29T10:37:46;1;1;
62249;PMS5003;48237;50.140;8.486;2022-12-29T10:40:23;2;2;
62249;PMS5003;48237;50.140;8.486;2022-12-29T10:42:54;4;3;
62249;PMS5003;48237;50.140;8.486;2022-12-29T10:45:24;1;1;
62249;PMS5003;48237;50.140;8.486;2022-12-29T10:47:57;4;3;
62249;PMS5003;48237;50.140;8.486;2022-12-29T10:50:27;1;1;
62249;PMS5003;48237;50.140;8.486;2022-12-29T10:52:54;2;2;
62249;PMS5003;48237;50.140;8.486;2022-12-29T10:55:26;2;2;
62249;PMS5003;48237;50.140;8.486;2022-12-29T10:57:59;2;2;
62249;PMS5003;48237;50.140;8.486;2022-12-29T11:00:31;1;1;
62249;PMS5003;48237;50.140;8.486;2022-12-29T11:03:07;1;0;
62249;PMS5003;48237;50.140;8.486;2022-12-29T11:05:52;0;0;
62249;PMS5003;48237;50.140;8.486;2022-12-29T11:08:25;2;1;
62249;PMS5003;48237;50.140;8.486;2022-12-29T11:10:58;0;0;
62249;PMS5003;48237;50.140;8.486;2022-12-29T11:13:28;1;0;
62249;PMS5003;48237;50.140;8.486;2022-12-29T11:15:56;1;1;
62249;PMS5003;48237;50.140;8.486;2022-12-29T11:18:23;0;0;
62249;PMS5003;48237;50.140;8.486;2022-12-29T11:20:52;1;1;
62249;PMS5003;48237;50.140;8.486;2022-12-29T11:23:22;2;1;
62249;PMS5003;48237;50.140;8.486;2022-12-29T11:26:25;0;0;
62249;PMS5003;48237;50.140;8.486;2022-12-29T11:29:26;0;0;
62249;PMS5003;48237;50.140;8.486;2022-12-29T11:31:55;1;1;
62249;PMS5003;48237;50.140;8.486;2022-12-29T11:34:24;0;0;
62249;PMS5003;48237;50.140;8.486;2022-12-29T11:36:53;0;0;
62249;PMS5003;48237;50.140;8.486;2022-12-29T11:39:26;1;1;
62249;PMS5003;48237;50.140;8.486;2022-12-29T11:41:57;0;0;
62249;PMS5003;48237;50.140;8.486;2022-12-29T11:44:26;0;0;
62249;PMS5003;48237;50.140;8.486;2022-12-29T11:46:53;3;1;
62249;PMS5003;48237;50.140;8.486;2022-12-29T11:49:22;2;0;
62249;PMS5003;48237;50.140;8.486;2022-12-29T11:51:51;0;0;
62249;PMS5003;48237;50.140;8.486;2022-12-29T11:54:22;0;0;
62249;PMS5003;48237;50.140;8.486;2022-12-29T11:56:51;1;1;
62249;PMS5003;48237;50.140;8.486;2022-12-29T11:59:36;1;0;
62249;PMS5003;48237;50.140;8.486;2022-12-29T12:02:13;0;0;
62249;PMS5003;48237;50.140;8.486;2022-12-29T12:04:53;4;1;
62249;PMS5003;48237;50.140;8.486;2022-12-29T12:07:31;1;1;
62249;PMS5003;48237;50.140;8.486;2022-12-29T12:10:05;1;1;
62249;PMS5003;48237;50.140;8.486;2022-12-29T12:12:39;4;3;
62249;PMS5003;48237;50.140;8.486;2022-12-29T12:15:15;1;1;
62249;PMS5003;48237;50.140;8.486;2022-12-29T12:17:47;0;0;
62249;PMS5003;48237;50.140;8.486;2022-12-29T12:20:18;1;1;
62249;PMS5003;48237;50.140;8.486;2022-12-29T12:22:51;1;0;
62249;PMS5003;48237;50.140;8.486;2022-12-29T12:25:29;1;0;
62249;PMS5003;48237;50.140;8.486;2022-12-29T12:28:02;0;0;
62249;PMS5003;48237;50.140;8.486;2022-12-29T12:30:38;0;0;
62249;PMS5003;48237;50.140;8.486;2022-12-29T12:33:14;2;1;
62249;PMS5003;48237;50.140;8.486;2022-12-29T12:35:52;1;0;
62249;PMS5003;48237;50.140;8.486;2022-12-29T12:38:31;0;0;
62249;PMS5003;48237;50.140;8.486;2022-12-29T12:41:07;3;1;
62249;PMS5003;48237;50.140;8.486;2022-12-29T12:43:37;1;1;
62249;PMS5003;48237;50.140;8.486;2022-12-29T12:46:12;1;1;
62249;PMS5003;48237;50.140;8.486;2022-12-29T12:49:14;2;0;
62249;PMS5003;48237;50.140;8.486;2022-12-29T12:51:57;3;2;
62249;PMS5003;48237;50.140;8.486;2022-12-29T12:54:37;1;0;
62249;PMS5003;48237;50.140;8.486;2022-12-29T12:57:17;1;1;
62249;PMS5003;48237;50.140;8.486;2022-12-29T12:59:56;1;1;
62249;PMS5003;48237;50.140;8.486;2022-12-29T13:02:34;0;0;
62249;PMS5003;48237;50.140;8.486;2022-12-29T13:05:12;1;1;
62249;PMS5003;48237;50.140;8.486;2022-12-29T13:07:52;2;1;
62249;PMS5003;48237;50.140;8.486;2022-12-29T13:10:34;3;1;
62249;PMS5003;48237;50.140;8.486;2022-12-29T13:15:26;2;1;
62249;PMS5003;48237;50.140;8.486;2022-12-29T13:18:05;0;0;
62249;PMS5003;48237;50.140;8.486;2022-12-29T13:20:43;1;1;
62249;PMS5003;48237;50.140;8.486;2022-12-29T13:23:17;1;1;
62249;PMS5003;48237;50.140;8.486;2022-12-29T13:25:55;1;1;
62249;PMS5003;48237;50.140;8.486;2022-12-29T13:28:29;1;1;
62249;PMS5003;48237;50.140;8.486;2022-12-29T13:31:04;2;1;
62249;PMS5003;48237;50.140;8.486;2022-12-29T13:33:42;3;3;
62249;PMS5003;48237;50.140;8.486;2022-12-29T13:36:18;3;1;
62249;PMS5003;48237;50.140;8.486;2022-12-29T13:38:51;1;1;
62249;PMS5003;48237;50.140;8.486;2022-12-29T13:41:29;5;2;
62249;PMS5003;48237;50.140;8.486;2022-12-29T13:44:00;1;1;
62249;PMS5003;48237;50.140;8.486;2022-12-29T13:46:31;2;2;
62249;PMS5003;48237;50.140;8.486;2022-12-29T13:49:04;0;0;
62249;PMS5003;48237;50.140;8.486;2022-12-29T13:51:37;2;2;
62249;PMS5003;48237;50.140;8.486;2022-12-29T13:54:12;3;2;
62249;PMS5003;48237;50.140;8.486;2022-12-29T13:56:51;1;1;
62249;PMS5003;48237;50.140;8.486;2022-12-29T13:59:23;3;3;
62249;PMS5003;48237;50.140;8.486;2022-12-29T14:01:58;5;3;
62249;PMS5003;48237;50.140;8.486;2022-12-29T14:04:28;4;2;
62249;PMS5003;48237;50.140;8.486;2022-12-29T14:06:59;1;1;
62249;PMS5003;48237;50.140;8.486;2022-12-29T14:09:40;3;1;
62249;PMS5003;48237;50.140;8.486;2022-12-29T14:12:28;1;1;
62249;PMS5003;48237;50.140;8.486;2022-12-29T14:15:13;2;1;
62249;PMS5003;48237;50.140;8.486;2022-12-29T14:17:59;3;3;
62249;PMS5003;48237;50.140;8.486;2022-12-29T14:20:30;5;2;
62249;PMS5003;48237;50.140;8.486;2022-12-29T14:22:59;2;2;
62249;PMS5003;48237;50.140;8.486;2022-12-29T14:26:00;1;1;
62249;PMS5003;48237;50.140;8.486;2022-12-29T14:28:38;3;1;
62249;PMS5003;48237;50.140;8.486;2022-12-29T14:31:32;5;4;
62249;PMS5003;48237;50.140;8.486;2022-12-29T14:34:39;2;1;
62249;PMS5003;48237;50.140;8.486;2022-12-29T14:37:21;2;2;
62249;PMS5003;48237;50.140;8.486;2022-12-29T14:40:02;1;1;
62249;PMS5003;48237;50.140;8.486;2022-12-29T14:42:30;2;1;
62249;PMS5003;48237;50.140;8.486;2022-12-29T14:44:59;1;1;
62249;PMS5003;48237;50.140;8.486;2022-12-29T14:47:33;1;1;
62249;PMS5003;48237;50.140;8.486;2022-12-29T14:50:03;2;2;
62249;PMS5003;48237;50.140;8.486;2022-12-29T14:52:32;2;2;
62249;PMS5003;48237;50.140;8.486;2022-12-29T14:55:41;3;2;
62249;PMS5003;48237;50.140;8.486;2022-12-29T14:58:13;7;2;
62249;PMS5003;48237;50.140;8.486;2022-12-29T15:00:44;2;2;
62249;PMS5003;48237;50.140;8.486;2022-12-29T15:03:14;4;3;
62249;PMS5003;48237;50.140;8.486;2022-12-29T15:05:46;4;2;
62249;PMS5003;48237;50.140;8.486;2022-12-29T15:08:17;0;0;
62249;PMS5003;48237;50.140;8.486;2022-12-29T15:10:48;4;2;
62249;PMS5003;48237;50.140;8.486;2022-12-29T15:13:22;4;2;
62249;PMS5003;48237;50.140;8.486;2022-12-29T15:15:51;6;2;
62249;PMS5003;48237;50.140;8.486;2022-12-29T15:18:25;1;1;
62249;PMS5003;48237;50.140;8.486;2022-12-29T15:20:55;2;0;
62249;PMS5003;48237;50.140;8.486;2022-12-29T15:23:23;1;1;
62249;PMS5003;48237;50.140;8.486;2022-12-29T15:25:53;1;0;
62249;PMS5003;48237;50.140;8.486;2022-12-29T15:28:23;1;1;
62249;PMS5003;48237;50.140;8.486;2022-12-29T15:30:51;2;1;
62249;PMS5003;48237;50.140;8.486;2022-12-29T15:33:20;1;1;
62249;PMS5003;48237;50.140;8.486;2022-12-29T15:35:49;5;1;
62249;PMS5003;48237;50.140;8.486;2022-12-29T15:38:21;4;2;
62249;PMS5003;48237;50.140;8.486;2022-12-29T15:40:52;1;1;
62249;PMS5003;48237;50.140;8.486;2022-12-29T15:43:35;2;2;
62249;PMS5003;48237;50.140;8.486;2022-12-29T15:46:13;3;1;
62249;PMS5003;48237;50.140;8.486;2022-12-29T15:48:41;6;2;
62249;PMS5003;48237;50.140;8.486;2022-12-29T15:51:12;1;1;
62249;PMS5003;48237;50.140;8.486;2022-12-29T15:53:46;1;1;
62249;PMS5003;48237;50.140;8.486;2022-12-29T15:56:15;1;1;
62249;PMS5003;48237;50.140;8.486;2022-12-29T15:58:43;0;0;
62249;PMS5003;48237;50.140;8.486;2022-12-29T16:01:22;1;1;
62249;PMS5003;48237;50.140;8.486;2022-12-29T16:03:53;1;1;
62249;PMS5003;48237;50.140;8.486;2022-12-29T16:06:29;4;1;
62249;PMS5003;48237;50.140;8.486;2022-12-29T16:09:00;2;1;
62249;PMS5003;48237;50.140;8.486;2022-12-29T16:11:31;1;1;
62249;PMS5003;48237;50.140;8.486;2022-12-29T16:14:00;0;0;
62249;PMS5003;48237;50.140;8.486;2022-12-29T16:16:33;3;2;
62249;PMS5003;48237;50.140;8.486;2022-12-29T16:19:05;1;1;
62249;PMS5003;48237;50.140;8.486;2022-12-29T16:21:40;0;0;
62249;PMS5003;48237;50.140;8.486;2022-12-29T16:24:08;3;1;
62249;PMS5003;48237;50.140;8.486;2022-12-29T16:26:44;2;2;
62249;PMS5003;48237;50.140;8.486;2022-12-29T16:29:13;1;1;
62249;PMS5003;48237;50.140;8.486;2022-12-29T16:31:49;0;0;
62249;PMS5003;48237;50.140;8.486;2022-12-29T16:34:22;2;1;
62249;PMS5003;48237;50.140;8.486;2022-12-29T16:36:53;1;0;
62249;PMS5003;48237;50.140;8.486;2022-12-29T16:39:27;5;4;
62249;PMS5003;48237;50.140;8.486;2022-12-29T16:41:59;4;1;
62249;PMS5003;48237;50.140;8.486;2022-12-29T16:44:28;2;2;
62249;PMS5003;48237;50.140;8.486;2022-12-29T16:47:28;1;1;
62249;PMS5003;48237;50.140;8.486;2022-12-29T16:49:56;5;1;
62249;PMS5003;48237;50.140;8.486;2022-12-29T16:52:39;2;2;
62249;PMS5003;48237;50.140;8.486;2022-12-29T16:55:14;1;1;
62249;PMS5003;48237;50.140;8.486;2022-12-29T16:57:42;2;2;
62249;PMS5003;48237;50.140;8.486;2022-12-29T17:00:17;2;1;
62249;PMS5003;48237;50.140;8.486;2022-12-29T17:02:46;3;2;
62249;PMS5003;48237;50.140;8.486;2022-12-29T17:05:15;1;1;
62249;PMS5003;48237;50.140;8.486;2022-12-29T17:07:44;1;1;
62249;PMS5003;48237;50.140;8.486;2022-12-29T17:10:12;1;1;
62249;PMS5003;48237;50.140;8.486;2022-12-29T17:12:40;3;1;
62249;PMS5003;48237;50.140;8.486;2022-12-29T17:15:11;1;1;
62249;PMS5003;48237;50.140;8.486;2022-12-29T17:17:43;5;2;
62249;PMS5003;48237;50.140;8.486;2022-12-29T17:20:14;3;1;